Aeroporto :
LOGIN :

Iscrizione | Disclaimer

   EN    FR    IT 

 










Sommario :    VFR   VFR Marginale   IFR   IFR Intensivo   IFR Molto Intensivo
Visibilità : 
Base nubi : 
>= 8 km
>= 3000ft
5 / 8 km
1000 / 3000 ft
1500m / 5 km
500 / 1000 ft
800 / 1500m
200 / 500 ft
< 800m
< 200 ft
Simboli :   Temporali  Nebbia  Neve Forte  Precipitazioni Forti  Vento > 20 kt
SIGMETs :   Varie  Temporali  Ghiacco  Turbolenza  Onda orograficha  Ceneri Vulcaniche






- Altitudine del aeroporto : 461 ft
- Codice IATA : WIE


ETOU - Wiesbaden Army

ULTIMO METAR :
  • 110156Z AUTO 17005KT 9999 OVC095 02/M01 A3005 RMK AO2 SLP184 T00161015 $

METARs OBSOLETI :
  • 110056Z AUTO 00000KT 9999 SCT100 OVC170 01/M01 A3008 RMK AO2 SLP195 T00131014 $
  • 102356Z AUTO 15005KT 9999 BKN130 OVC170 01/M01 A3011 RMK AO2 SLP205 T00121010 10023 20003 57021

TAF TAF ETOU
Valido dal 10 a 20 ore il 12 a 02 ore UTC


102006Z 1020/1202 20009KT 9999 SCT015 QNH3020INS
BECMG 1023/1100 18006KT 9999 BKN060 QNH2994INS
BECMG 1106/1107 20006KT 8000 -RASN OVC010 620703 QNH2989INS
BECMG 1116/1117 22006KT 9999 NSW OVC015 620404 QNH2968INS TX03/1120Z TNM01/1023Z



MetMap, La meteo Aeronautica in un colpo d'occhio ! - Copyright ORBIFLY Dicembre 2007 - Disclaimer

ORBIFLY MET'MAP TEAM :

Programmazione e sviluppo : Alexandra Zaïnal
Concezione : Baudouin d'Aumeries
Aiuto per la programmazione : Marc-Olivier Méhu
Supporto tecnico e logistico : Manuel Goepfert
Aiuto per la traduzione : Arnaldo La Scala

Contatto : metmap@orbifly.com




FONTI E CREDITI :

   NOAA